sensor_id;sensor_type;location;lat;lon;timestamp;P1;durP1;ratioP1;P2;durP2;ratioP2
22284;SDS011;11311;52.192;20.900;2024-01-15T00:01:33;15.48;;;12.63;;
22284;SDS011;11311;52.192;20.900;2024-01-15T00:04:02;16.27;;;11.68;;
22284;SDS011;11311;52.192;20.900;2024-01-15T00:06:32;18.20;;;11.27;;
22284;SDS011;11311;52.192;20.900;2024-01-15T00:09:01;22.70;;;14.35;;
22284;SDS011;11311;52.192;20.900;2024-01-15T00:11:30;19.17;;;12.75;;
22284;SDS011;11311;52.192;20.900;2024-01-15T00:13:59;18.65;;;14.25;;
22284;SDS011;11311;52.192;20.900;2024-01-15T00:16:28;25.75;;;14.73;;
22284;SDS011;11311;52.192;20.900;2024-01-15T00:18:58;18.42;;;13.95;;
22284;SDS011;11311;52.192;20.900;2024-01-15T00:21:27;19.70;;;14.38;;
22284;SDS011;11311;52.192;20.900;2024-01-15T00:23:57;17.48;;;13.30;;
22284;SDS011;11311;52.192;20.900;2024-01-15T00:26:26;24.95;;;14.02;;
22284;SDS011;11311;52.192;20.900;2024-01-15T00:28:54;20.42;;;12.93;;
22284;SDS011;11311;52.192;20.900;2024-01-15T00:31:23;19.10;;;14.85;;
22284;SDS011;11311;52.192;20.900;2024-01-15T00:33:52;17.88;;;13.55;;
22284;SDS011;11311;52.192;20.900;2024-01-15T00:36:23;15.73;;;12.60;;
22284;SDS011;11311;52.192;20.900;2024-01-15T00:38:52;19.67;;;13.50;;
22284;SDS011;11311;52.192;20.900;2024-01-15T00:41:21;14.90;;;12.38;;
22284;SDS011;11311;52.192;20.900;2024-01-15T00:43:50;23.60;;;11.57;;
22284;SDS011;11311;52.192;20.900;2024-01-15T00:46:19;18.20;;;13.18;;
22284;SDS011;11311;52.192;20.900;2024-01-15T00:48:48;20.75;;;14.98;;
22284;SDS011;11311;52.192;20.900;2024-01-15T00:51:18;19.23;;;14.57;;
22284;SDS011;11311;52.192;20.900;2024-01-15T00:53:49;15.52;;;11.77;;
22284;SDS011;11311;52.192;20.900;2024-01-15T00:56:18;26.40;;;18.15;;
22284;SDS011;11311;52.192;20.900;2024-01-15T00:58:46;25.08;;;13.68;;
22284;SDS011;11311;52.192;20.900;2024-01-15T01:01:17;23.45;;;15.57;;
22284;SDS011;11311;52.192;20.900;2024-01-15T01:03:46;22.17;;;15.45;;
22284;SDS011;11311;52.192;20.900;2024-01-15T01:06:16;26.20;;;18.13;;
22284;SDS011;11311;52.192;20.900;2024-01-15T01:08:45;23.00;;;17.73;;
22284;SDS011;11311;52.192;20.900;2024-01-15T01:11:15;20.45;;;16.63;;
22284;SDS011;11311;52.192;20.900;2024-01-15T01:13:44;24.83;;;19.63;;
22284;SDS011;11311;52.192;20.900;2024-01-15T01:16:13;22.38;;;17.88;;
22284;SDS011;11311;52.192;20.900;2024-01-15T01:18:42;26.75;;;19.00;;
22284;SDS011;11311;52.192;20.900;2024-01-15T01:21:11;23.27;;;17.17;;
22284;SDS011;11311;52.192;20.900;2024-01-15T01:23:40;20.17;;;15.35;;
22284;SDS011;11311;52.192;20.900;2024-01-15T01:26:09;21.73;;;17.40;;
22284;SDS011;11311;52.192;20.900;2024-01-15T01:28:39;22.83;;;16.67;;
22284;SDS011;11311;52.192;20.900;2024-01-15T01:31:08;20.15;;;16.13;;
22284;SDS011;11311;52.192;20.900;2024-01-15T01:33:38;20.10;;;17.40;;
22284;SDS011;11311;52.192;20.900;2024-01-15T01:36:08;21.88;;;17.83;;
22284;SDS011;11311;52.192;20.900;2024-01-15T01:38:37;22.38;;;17.00;;
22284;SDS011;11311;52.192;20.900;2024-01-15T01:41:08;23.33;;;17.83;;
22284;SDS011;11311;52.192;20.900;2024-01-15T01:43:37;23.77;;;18.08;;
22284;SDS011;11311;52.192;20.900;2024-01-15T01:46:07;24.25;;;18.30;;
22284;SDS011;11311;52.192;20.900;2024-01-15T01:48:37;24.58;;;18.10;;
22284;SDS011;11311;52.192;20.900;2024-01-15T01:51:06;27.63;;;16.95;;
22284;SDS011;11311;52.192;20.900;2024-01-15T01:53:36;23.02;;;18.73;;
22284;SDS011;11311;52.192;20.900;2024-01-15T01:56:06;21.88;;;18.67;;
22284;SDS011;11311;52.192;20.900;2024-01-15T01:58:35;28.20;;;18.23;;
22284;SDS011;11311;52.192;20.900;2024-01-15T02:01:05;21.77;;;16.83;;
22284;SDS011;11311;52.192;20.900;2024-01-15T02:03:35;22.27;;;17.88;;
22284;SDS011;11311;52.192;20.900;2024-01-15T02:06:05;21.67;;;17.03;;
22284;SDS011;11311;52.192;20.900;2024-01-15T02:08:35;30.20;;;18.75;;
22284;SDS011;11311;52.192;20.900;2024-01-15T02:11:04;23.52;;;18.23;;
22284;SDS011;11311;52.192;20.900;2024-01-15T02:13:32;19.63;;;15.60;;
22284;SDS011;11311;52.192;20.900;2024-01-15T02:16:01;24.55;;;17.17;;
22284;SDS011;11311;52.192;20.900;2024-01-15T02:18:40;19.25;;;14.43;;
22284;SDS011;11311;52.192;20.900;2024-01-15T02:21:09;22.67;;;16.75;;
22284;SDS011;11311;52.192;20.900;2024-01-15T02:23:40;25.20;;;17.30;;
22284;SDS011;11311;52.192;20.900;2024-01-15T02:26:09;24.45;;;17.10;;
22284;SDS011;11311;52.192;20.900;2024-01-15T02:28:38;22.70;;;12.70;;
22284;SDS011;11311;52.192;20.900;2024-01-15T02:31:08;21.95;;;16.42;;
22284;SDS011;11311;52.192;20.900;2024-01-15T02:33:37;23.50;;;16.70;;
22284;SDS011;11311;52.192;20.900;2024-01-15T02:36:07;18.30;;;13.35;;
22284;SDS011;11311;52.192;20.900;2024-01-15T02:38:36;22.20;;;14.88;;
22284;SDS011;11311;52.192;20.900;2024-01-15T02:41:06;19.60;;;15.30;;
22284;SDS011;11311;52.192;20.900;2024-01-15T02:43:35;23.13;;;16.45;;
22284;SDS011;11311;52.192;20.900;2024-01-15T02:46:04;23.35;;;17.08;;
22284;SDS011;11311;52.192;20.900;2024-01-15T02:48:33;23.52;;;17.48;;
22284;SDS011;11311;52.192;20.900;2024-01-15T02:51:03;21.60;;;15.07;;
22284;SDS011;11311;52.192;20.900;2024-01-15T02:53:33;19.52;;;14.93;;
22284;SDS011;11311;52.192;20.900;2024-01-15T02:56:02;26.77;;;18.08;;
22284;SDS011;11311;52.192;20.900;2024-01-15T02:58:32;24.35;;;17.48;;
22284;SDS011;11311;52.192;20.900;2024-01-15T03:01:01;21.77;;;16.70;;
22284;SDS011;11311;52.192;20.900;2024-01-15T03:03:30;26.07;;;14.13;;
22284;SDS011;11311;52.192;20.900;2024-01-15T03:06:01;20.05;;;16.05;;
22284;SDS011;11311;52.192;20.900;2024-01-15T03:08:30;26.17;;;17.75;;
22284;SDS011;11311;52.192;20.900;2024-01-15T03:10:59;19.67;;;14.88;;
22284;SDS011;11311;52.192;20.900;2024-01-15T03:13:28;24.48;;;16.58;;
22284;SDS011;11311;52.192;20.900;2024-01-15T03:15:58;34.47;;;20.77;;
22284;SDS011;11311;52.192;20.900;2024-01-15T03:18:27;37.55;;;23.65;;
22284;SDS011;11311;52.192;20.900;2024-01-15T03:20:57;33.53;;;18.90;;
22284;SDS011;11311;52.192;20.900;2024-01-15T03:23:28;32.00;;;18.42;;
22284;SDS011;11311;52.192;20.900;2024-01-15T03:25:57;28.95;;;19.85;;
22284;SDS011;11311;52.192;20.900;2024-01-15T03:28:26;33.85;;;21.15;;
22284;SDS011;11311;52.192;20.900;2024-01-15T03:30:59;34.22;;;23.38;;
22284;SDS011;11311;52.192;20.900;2024-01-15T03:33:28;29.10;;;20.85;;
22284;SDS011;11311;52.192;20.900;2024-01-15T03:35:57;30.45;;;20.42;;
22284;SDS011;11311;52.192;20.900;2024-01-15T03:38:27;31.60;;;20.02;;
22284;SDS011;11311;52.192;20.900;2024-01-15T03:40:57;26.80;;;19.75;;
22284;SDS011;11311;52.192;20.900;2024-01-15T03:43:25;30.75;;;20.08;;
22284;SDS011;11311;52.192;20.900;2024-01-15T03:45:55;18.05;;;13.35;;
22284;SDS011;11311;52.192;20.900;2024-01-15T03:48:26;28.45;;;18.48;;
22284;SDS011;11311;52.192;20.900;2024-01-15T03:50:55;25.42;;;15.35;;
22284;SDS011;11311;52.192;20.900;2024-01-15T03:53:24;29.08;;;17.85;;
22284;SDS011;11311;52.192;20.900;2024-01-15T03:55:52;25.10;;;17.50;;
22284;SDS011;11311;52.192;20.900;2024-01-15T03:58:21;21.73;;;16.15;;
22284;SDS011;11311;52.192;20.900;2024-01-15T04:00:50;26.08;;;17.25;;
22284;SDS011;11311;52.192;20.900;2024-01-15T04:03:20;24.75;;;17.30;;
22284;SDS011;11311;52.192;20.900;2024-01-15T04:05:50;27.17;;;20.23;;
22284;SDS011;11311;52.192;20.900;2024-01-15T04:08:19;21.13;;;17.00;;
22284;SDS011;11311;52.192;20.900;2024-01-15T04:10:48;24.15;;;15.75;;
22284;SDS011;11311;52.192;20.900;2024-01-15T04:13:17;20.85;;;15.68;;
22284;SDS011;11311;52.192;20.900;2024-01-15T04:15:46;21.70;;;16.33;;
22284;SDS011;11311;52.192;20.900;2024-01-15T04:18:15;22.80;;;16.75;;
22284;SDS011;11311;52.192;20.900;2024-01-15T04:20:45;19.15;;;13.88;;
22284;SDS011;11311;52.192;20.900;2024-01-15T04:23:15;24.63;;;16.05;;
22284;SDS011;11311;52.192;20.900;2024-01-15T04:28:13;18.30;;;13.35;;
22284;SDS011;11311;52.192;20.900;2024-01-15T04:30:42;19.10;;;12.00;;
22284;SDS011;11311;52.192;20.900;2024-01-15T04:33:11;23.50;;;15.02;;
22284;SDS011;11311;52.192;20.900;2024-01-15T04:35:40;16.37;;;11.57;;
22284;SDS011;11311;52.192;20.900;2024-01-15T04:38:09;21.80;;;12.48;;
22284;SDS011;11311;52.192;20.900;2024-01-15T04:40:39;13.52;;;10.90;;
22284;SDS011;11311;52.192;20.900;2024-01-15T04:43:09;18.40;;;13.25;;
22284;SDS011;11311;52.192;20.900;2024-01-15T04:45:38;15.05;;;11.27;;
22284;SDS011;11311;52.192;20.900;2024-01-15T04:48:07;17.23;;;12.52;;
22284;SDS011;11311;52.192;20.900;2024-01-15T04:50:36;12.77;;;11.40;;
22284;SDS011;11311;52.192;20.900;2024-01-15T04:53:05;16.10;;;12.32;;
22284;SDS011;11311;52.192;20.900;2024-01-15T04:55:36;14.68;;;11.60;;
22284;SDS011;11311;52.192;20.900;2024-01-15T04:58:07;16.27;;;11.18;;
22284;SDS011;11311;52.192;20.900;2024-01-15T05:00:36;15.82;;;11.93;;
22284;SDS011;11311;52.192;20.900;2024-01-15T05:03:07;14.55;;;12.13;;
22284;SDS011;11311;52.192;20.900;2024-01-15T05:05:36;15.63;;;10.00;;
22284;SDS011;11311;52.192;20.900;2024-01-15T05:08:05;17.20;;;12.93;;
22284;SDS011;11311;52.192;20.900;2024-01-15T05:10:34;14.35;;;12.00;;
22284;SDS011;11311;52.192;20.900;2024-01-15T05:13:03;19.67;;;14.85;;
22284;SDS011;11311;52.192;20.900;2024-01-15T05:15:34;19.77;;;14.88;;
22284;SDS011;11311;52.192;20.900;2024-01-15T05:18:03;21.25;;;14.77;;
22284;SDS011;11311;52.192;20.900;2024-01-15T05:23:02;17.13;;;12.75;;
22284;SDS011;11311;52.192;20.900;2024-01-15T05:25:31;21.00;;;12.77;;
22284;SDS011;11311;52.192;20.900;2024-01-15T05:28:00;15.85;;;11.27;;
22284;SDS011;11311;52.192;20.900;2024-01-15T05:30:29;13.25;;;10.27;;
22284;SDS011;11311;52.192;20.900;2024-01-15T05:33:00;15.90;;;12.57;;
22284;SDS011;11311;52.192;20.900;2024-01-15T05:35:30;19.23;;;14.13;;
22284;SDS011;11311;52.192;20.900;2024-01-15T05:37:59;15.00;;;11.60;;
22284;SDS011;11311;52.192;20.900;2024-01-15T05:40:27;20.23;;;13.95;;
22284;SDS011;11311;52.192;20.900;2024-01-15T05:42:57;23.00;;;12.10;;
22284;SDS011;11311;52.192;20.900;2024-01-15T05:45:26;14.88;;;12.57;;
22284;SDS011;11311;52.192;20.900;2024-01-15T05:47:55;20.33;;;13.90;;
22284;SDS011;11311;52.192;20.900;2024-01-15T05:50:26;17.80;;;12.63;;
22284;SDS011;11311;52.192;20.900;2024-01-15T05:52:54;20.60;;;13.50;;
22284;SDS011;11311;52.192;20.900;2024-01-15T05:55:23;16.38;;;12.38;;
22284;SDS011;11311;52.192;20.900;2024-01-15T05:57:53;15.50;;;10.60;;
22284;SDS011;11311;52.192;20.900;2024-01-15T06:00:22;15.25;;;12.88;;
22284;SDS011;11311;52.192;20.900;2024-01-15T06:02:51;12.73;;;10.33;;
22284;SDS011;11311;52.192;20.900;2024-01-15T06:05:20;20.50;;;14.88;;
22284;SDS011;11311;52.192;20.900;2024-01-15T06:07:50;20.30;;;14.80;;
22284;SDS011;11311;52.192;20.900;2024-01-15T06:10:19;15.68;;;12.90;;
22284;SDS011;11311;52.192;20.900;2024-01-15T06:12:48;15.95;;;12.63;;
22284;SDS011;11311;52.192;20.900;2024-01-15T06:15:18;19.42;;;13.98;;
22284;SDS011;11311;52.192;20.900;2024-01-15T06:17:47;16.50;;;11.43;;
22284;SDS011;11311;52.192;20.900;2024-01-15T06:20:16;17.35;;;12.48;;
22284;SDS011;11311;52.192;20.900;2024-01-15T06:22:45;17.25;;;13.30;;
22284;SDS011;11311;52.192;20.900;2024-01-15T06:25:16;18.35;;;11.43;;
22284;SDS011;11311;52.192;20.900;2024-01-15T06:27:45;17.08;;;13.82;;
22284;SDS011;11311;52.192;20.900;2024-01-15T06:30:14;21.77;;;15.38;;
22284;SDS011;11311;52.192;20.900;2024-01-15T06:32:44;23.60;;;18.50;;
22284;SDS011;11311;52.192;20.900;2024-01-15T06:35:13;15.00;;;12.27;;
22284;SDS011;11311;52.192;20.900;2024-01-15T06:37:42;15.82;;;12.65;;
22284;SDS011;11311;52.192;20.900;2024-01-15T06:40:11;19.08;;;14.07;;
22284;SDS011;11311;52.192;20.900;2024-01-15T06:42:41;15.10;;;13.13;;
22284;SDS011;11311;52.192;20.900;2024-01-15T06:45:11;16.85;;;13.90;;
22284;SDS011;11311;52.192;20.900;2024-01-15T06:47:40;17.58;;;13.65;;
22284;SDS011;11311;52.192;20.900;2024-01-15T06:50:09;15.98;;;12.73;;
22284;SDS011;11311;52.192;20.900;2024-01-15T06:52:38;18.23;;;13.38;;
22284;SDS011;11311;52.192;20.900;2024-01-15T06:55:06;16.00;;;13.48;;
22284;SDS011;11311;52.192;20.900;2024-01-15T06:57:36;15.50;;;13.07;;
22284;SDS011;11311;52.192;20.900;2024-01-15T07:00:07;18.67;;;12.13;;
22284;SDS011;11311;52.192;20.900;2024-01-15T07:02:38;17.05;;;13.63;;
22284;SDS011;11311;52.192;20.900;2024-01-15T07:05:07;15.77;;;10.98;;
22284;SDS011;11311;52.192;20.900;2024-01-15T07:07:36;19.10;;;12.93;;
22284;SDS011;11311;52.192;20.900;2024-01-15T07:10:05;20.25;;;15.77;;
22284;SDS011;11311;52.192;20.900;2024-01-15T07:12:35;17.33;;;13.43;;
22284;SDS011;11311;52.192;20.900;2024-01-15T07:15:04;15.30;;;11.75;;
22284;SDS011;11311;52.192;20.900;2024-01-15T07:17:35;20.65;;;15.85;;
22284;SDS011;11311;52.192;20.900;2024-01-15T07:20:07;20.60;;;15.55;;
22284;SDS011;11311;52.192;20.900;2024-01-15T07:22:36;21.27;;;15.38;;
22284;SDS011;11311;52.192;20.900;2024-01-15T07:25:05;22.13;;;16.27;;
22284;SDS011;11311;52.192;20.900;2024-01-15T07:27:35;22.75;;;16.45;;
22284;SDS011;11311;52.192;20.900;2024-01-15T07:30:04;19.08;;;13.45;;
22284;SDS011;11311;52.192;20.900;2024-01-15T07:32:36;22.58;;;17.30;;
22284;SDS011;11311;52.192;20.900;2024-01-15T07:35:05;19.90;;;13.65;;
22284;SDS011;11311;52.192;20.900;2024-01-15T07:37:34;22.98;;;16.17;;
22284;SDS011;11311;52.192;20.900;2024-01-15T07:40:04;15.77;;;11.77;;
22284;SDS011;11311;52.192;20.900;2024-01-15T07:42:35;22.10;;;13.43;;
22284;SDS011;11311;52.192;20.900;2024-01-15T07:45:07;19.38;;;14.40;;
22284;SDS011;11311;52.192;20.900;2024-01-15T07:47:36;17.30;;;13.15;;
22284;SDS011;11311;52.192;20.900;2024-01-15T07:50:05;18.38;;;14.27;;
22284;SDS011;11311;52.192;20.900;2024-01-15T07:52:34;10.95;;;9.75;;
22284;SDS011;11311;52.192;20.900;2024-01-15T07:55:04;12.63;;;11.13;;
22284;SDS011;11311;52.192;20.900;2024-01-15T07:57:33;15.43;;;11.82;;
22284;SDS011;11311;52.192;20.900;2024-01-15T08:00:03;18.52;;;12.73;;
22284;SDS011;11311;52.192;20.900;2024-01-15T08:02:35;14.50;;;10.77;;
22284;SDS011;11311;52.192;20.900;2024-01-15T08:05:04;18.30;;;12.02;;
22284;SDS011;11311;52.192;20.900;2024-01-15T08:07:33;12.18;;;9.48;;
22284;SDS011;11311;52.192;20.900;2024-01-15T08:10:02;18.58;;;15.70;;
22284;SDS011;11311;52.192;20.900;2024-01-15T08:12:31;19.20;;;14.18;;
22284;SDS011;11311;52.192;20.900;2024-01-15T08:15:01;18.80;;;14.00;;
22284;SDS011;11311;52.192;20.900;2024-01-15T08:17:30;15.43;;;12.50;;
22284;SDS011;11311;52.192;20.900;2024-01-15T08:20:01;20.30;;;13.40;;
22284;SDS011;11311;52.192;20.900;2024-01-15T08:22:30;19.15;;;13.88;;
22284;SDS011;11311;52.192;20.900;2024-01-15T08:24:59;15.75;;;12.15;;
22284;SDS011;11311;52.192;20.900;2024-01-15T08:27:28;15.73;;;12.25;;
22284;SDS011;11311;52.192;20.900;2024-01-15T08:29:58;14.18;;;11.52;;
22284;SDS011;11311;52.192;20.900;2024-01-15T08:32:27;13.50;;;10.85;;
22284;SDS011;11311;52.192;20.900;2024-01-15T08:34:57;15.30;;;12.30;;
22284;SDS011;11311;52.192;20.900;2024-01-15T08:37:27;16.50;;;13.18;;
22284;SDS011;11311;52.192;20.900;2024-01-15T08:39:56;14.27;;;11.20;;
22284;SDS011;11311;52.192;20.900;2024-01-15T08:42:25;15.27;;;12.32;;
22284;SDS011;11311;52.192;20.900;2024-01-15T08:44:54;19.25;;;14.52;;
22284;SDS011;11311;52.192;20.900;2024-01-15T08:47:23;18.00;;;12.52;;
22284;SDS011;11311;52.192;20.900;2024-01-15T08:49:52;18.40;;;14.82;;
22284;SDS011;11311;52.192;20.900;2024-01-15T08:52:21;21.70;;;17.52;;
22284;SDS011;11311;52.192;20.900;2024-01-15T08:54:52;20.17;;;15.10;;
22284;SDS011;11311;52.192;20.900;2024-01-15T08:57:21;24.55;;;15.23;;
22284;SDS011;11311;52.192;20.900;2024-01-15T08:59:50;18.08;;;13.10;;
22284;SDS011;11311;52.192;20.900;2024-01-15T09:02:22;22.67;;;15.85;;
22284;SDS011;11311;52.192;20.900;2024-01-15T09:04:51;18.63;;;12.30;;
22284;SDS011;11311;52.192;20.900;2024-01-15T09:07:20;14.65;;;12.95;;
22284;SDS011;11311;52.192;20.900;2024-01-15T09:09:50;25.35;;;10.60;;
22284;SDS011;11311;52.192;20.900;2024-01-15T09:12:20;16.58;;;12.18;;
22284;SDS011;11311;52.192;20.900;2024-01-15T09:14:49;16.92;;;13.20;;
22284;SDS011;11311;52.192;20.900;2024-01-15T09:17:19;11.57;;;9.13;;
22284;SDS011;11311;52.192;20.900;2024-01-15T09:19:48;16.10;;;9.38;;
22284;SDS011;11311;52.192;20.900;2024-01-15T09:22:17;10.30;;;9.23;;
22284;SDS011;11311;52.192;20.900;2024-01-15T09:24:46;16.33;;;9.73;;
22284;SDS011;11311;52.192;20.900;2024-01-15T09:27:17;11.15;;;8.65;;
22284;SDS011;11311;52.192;20.900;2024-01-15T09:29:46;13.98;;;10.30;;
22284;SDS011;11311;52.192;20.900;2024-01-15T09:32:15;11.70;;;9.48;;
22284;SDS011;11311;52.192;20.900;2024-01-15T09:34:44;18.05;;;9.07;;
22284;SDS011;11311;52.192;20.900;2024-01-15T09:37:13;15.25;;;9.95;;
22284;SDS011;11311;52.192;20.900;2024-01-15T09:40:03;11.85;;;8.13;;
22284;SDS011;11311;52.192;20.900;2024-01-15T09:42:35;12.38;;;8.55;;
22284;SDS011;11311;52.192;20.900;2024-01-15T09:45:05;14.07;;;7.07;;
22284;SDS011;11311;52.192;20.900;2024-01-15T09:47:34;7.80;;;6.90;;
22284;SDS011;11311;52.192;20.900;2024-01-15T09:50:07;15.10;;;8.65;;
22284;SDS011;11311;52.192;20.900;2024-01-15T09:52:37;10.52;;;7.68;;
22284;SDS011;11311;52.192;20.900;2024-01-15T09:55:07;9.70;;;6.80;;
22284;SDS011;11311;52.192;20.900;2024-01-15T09:57:40;9.73;;;6.05;;
22284;SDS011;11311;52.192;20.900;2024-01-15T10:00:12;9.18;;;6.93;;
22284;SDS011;11311;52.192;20.900;2024-01-15T10:02:42;8.57;;;6.75;;
22284;SDS011;11311;52.192;20.900;2024-01-15T10:05:12;13.43;;;7.28;;
22284;SDS011;11311;52.192;20.900;2024-01-15T10:07:41;16.02;;;7.97;;
22284;SDS011;11311;52.192;20.900;2024-01-15T10:10:11;11.13;;;7.47;;
22284;SDS011;11311;52.192;20.900;2024-01-15T10:12:42;8.80;;;7.00;;
22284;SDS011;11311;52.192;20.900;2024-01-15T10:15:12;8.70;;;6.85;;
22284;SDS011;11311;52.192;20.900;2024-01-15T10:17:41;13.18;;;6.95;;
22284;SDS011;11311;52.192;20.900;2024-01-15T10:20:10;5.88;;;5.25;;
22284;SDS011;11311;52.192;20.900;2024-01-15T10:22:40;10.95;;;7.47;;
22284;SDS011;11311;52.192;20.900;2024-01-15T10:25:11;10.65;;;8.02;;
22284;SDS011;11311;52.192;20.900;2024-01-15T10:27:42;8.75;;;6.20;;
22284;SDS011;11311;52.192;20.900;2024-01-15T10:30:12;8.98;;;7.10;;
22284;SDS011;11311;52.192;20.900;2024-01-15T10:32:44;10.60;;;7.35;;
22284;SDS011;11311;52.192;20.900;2024-01-15T10:35:27;11.23;;;8.25;;
22284;SDS011;11311;52.192;20.900;2024-01-15T10:37:57;14.27;;;8.15;;
22284;SDS011;11311;52.192;20.900;2024-01-15T10:40:26;11.27;;;7.63;;
22284;SDS011;11311;52.192;20.900;2024-01-15T10:42:57;10.32;;;7.75;;
22284;SDS011;11311;52.192;20.900;2024-01-15T10:45:26;11.52;;;7.53;;
22284;SDS011;11311;52.192;20.900;2024-01-15T10:47:55;13.52;;;8.30;;
22284;SDS011;11311;52.192;20.900;2024-01-15T10:50:27;15.48;;;7.97;;
22284;SDS011;11311;52.192;20.900;2024-01-15T10:52:56;10.25;;;7.00;;
22284;SDS011;11311;52.192;20.900;2024-01-15T10:55:25;12.40;;;7.82;;
22284;SDS011;11311;52.192;20.900;2024-01-15T10:57:56;13.95;;;9.23;;
22284;SDS011;11311;52.192;20.900;2024-01-15T11:00:26;13.48;;;8.50;;
22284;SDS011;11311;52.192;20.900;2024-01-15T11:02:55;10.55;;;7.25;;
22284;SDS011;11311;52.192;20.900;2024-01-15T11:05:25;13.38;;;8.48;;
22284;SDS011;11311;52.192;20.900;2024-01-15T11:07:54;12.65;;;9.45;;
22284;SDS011;11311;52.192;20.900;2024-01-15T11:13:13;13.10;;;8.88;;
22284;SDS011;11311;52.192;20.900;2024-01-15T11:15:58;13.27;;;8.45;;
22284;SDS011;11311;52.192;20.900;2024-01-15T11:18:29;15.70;;;8.23;;
22284;SDS011;11311;52.192;20.900;2024-01-15T11:23:52;14.30;;;8.90;;
22284;SDS011;11311;52.192;20.900;2024-01-15T11:26:31;11.02;;;8.50;;
22284;SDS011;11311;52.192;20.900;2024-01-15T11:29:06;13.13;;;8.30;;
22284;SDS011;11311;52.192;20.900;2024-01-15T11:34:52;14.98;;;9.57;;
22284;SDS011;11311;52.192;20.900;2024-01-15T11:37:26;13.32;;;9.48;;
22284;SDS011;11311;52.192;20.900;2024-01-15T11:40:01;12.50;;;9.05;;
22284;SDS011;11311;52.192;20.900;2024-01-15T11:42:32;13.38;;;9.35;;
22284;SDS011;11311;52.192;20.900;2024-01-15T11:45:02;17.25;;;9.40;;
22284;SDS011;11311;52.192;20.900;2024-01-15T11:47:45;15.23;;;8.52;;
22284;SDS011;11311;52.192;20.900;2024-01-15T11:50:38;13.30;;;8.32;;
22284;SDS011;11311;52.192;20.900;2024-01-15T11:55:57;15.45;;;11.10;;
22284;SDS011;11311;52.192;20.900;2024-01-15T11:58:27;16.25;;;9.55;;
22284;SDS011;11311;52.192;20.900;2024-01-15T12:00:58;21.77;;;10.40;;
22284;SDS011;11311;52.192;20.900;2024-01-15T12:03:28;12.60;;;9.65;;
22284;SDS011;11311;52.192;20.900;2024-01-15T12:05:57;15.10;;;9.32;;
22284;SDS011;11311;52.192;20.900;2024-01-15T12:08:27;14.02;;;10.23;;
22284;SDS011;11311;52.192;20.900;2024-01-15T12:10:59;12.65;;;8.10;;
22284;SDS011;11311;52.192;20.900;2024-01-15T12:13:28;16.83;;;10.00;;
22284;SDS011;11311;52.192;20.900;2024-01-15T12:15:59;19.55;;;9.00;;
22284;SDS011;11311;52.192;20.900;2024-01-15T12:18:31;15.23;;;10.77;;
22284;SDS011;11311;52.192;20.900;2024-01-15T12:21:00;19.87;;;10.37;;
22284;SDS011;11311;52.192;20.900;2024-01-15T12:23:30;19.88;;;11.95;;
22284;SDS011;11311;52.192;20.900;2024-01-15T12:25:59;14.47;;;9.50;;
22284;SDS011;11311;52.192;20.900;2024-01-15T12:28:28;46.90;;;10.90;;
22284;SDS011;11311;52.192;20.900;2024-01-15T12:30:59;16.98;;;10.50;;
22284;SDS011;11311;52.192;20.900;2024-01-15T12:33:33;19.90;;;11.90;;
22284;SDS011;11311;52.192;20.900;2024-01-15T12:36:03;24.23;;;13.85;;
22284;SDS011;11311;52.192;20.900;2024-01-15T12:38:33;29.45;;;15.63;;
22284;SDS011;11311;52.192;20.900;2024-01-15T12:41:02;23.73;;;13.95;;
22284;SDS011;11311;52.192;20.900;2024-01-15T12:43:30;24.63;;;14.07;;
22284;SDS011;11311;52.192;20.900;2024-01-15T12:46:01;21.08;;;12.68;;
22284;SDS011;11311;52.192;20.900;2024-01-15T12:48:31;22.77;;;10.98;;
22284;SDS011;11311;52.192;20.900;2024-01-15T12:51:00;16.13;;;10.43;;
22284;SDS011;11311;52.192;20.900;2024-01-15T12:53:29;16.05;;;10.10;;
22284;SDS011;11311;52.192;20.900;2024-01-15T12:55:58;15.75;;;11.50;;
22284;SDS011;11311;52.192;20.900;2024-01-15T12:58:27;19.25;;;10.68;;
22284;SDS011;11311;52.192;20.900;2024-01-15T13:00:56;13.17;;;9.87;;
22284;SDS011;11311;52.192;20.900;2024-01-15T13:03:27;13.35;;;9.25;;
22284;SDS011;11311;52.192;20.900;2024-01-15T13:05:56;16.60;;;10.48;;
22284;SDS011;11311;52.192;20.900;2024-01-15T13:08:26;44.20;;;13.80;;
22284;SDS011;11311;52.192;20.900;2024-01-15T13:10:57;25.98;;;13.90;;
22284;SDS011;11311;52.192;20.900;2024-01-15T13:13:25;20.20;;;14.02;;
22284;SDS011;11311;52.192;20.900;2024-01-15T13:15:54;20.98;;;13.05;;
22284;SDS011;11311;52.192;20.900;2024-01-15T13:18:23;21.95;;;14.55;;
22284;SDS011;11311;52.192;20.900;2024-01-15T13:20:54;29.73;;;16.23;;
22284;SDS011;11311;52.192;20.900;2024-01-15T13:23:23;25.35;;;15.88;;
22284;SDS011;11311;52.192;20.900;2024-01-15T13:25:52;21.33;;;14.23;;
22284;SDS011;11311;52.192;20.900;2024-01-15T13:28:23;32.40;;;14.55;;
22284;SDS011;11311;52.192;20.900;2024-01-15T13:30:52;25.52;;;14.98;;
22284;SDS011;11311;52.192;20.900;2024-01-15T13:33:21;21.83;;;14.02;;
22284;SDS011;11311;52.192;20.900;2024-01-15T13:35:51;22.50;;;13.17;;
22284;SDS011;11311;52.192;20.900;2024-01-15T13:38:21;16.00;;;10.15;;
22284;SDS011;11311;52.192;20.900;2024-01-15T13:40:52;19.83;;;11.52;;
22284;SDS011;11311;52.192;20.900;2024-01-15T13:43:22;18.48;;;13.73;;
22284;SDS011;11311;52.192;20.900;2024-01-15T13:45:51;18.75;;;12.23;;
22284;SDS011;11311;52.192;20.900;2024-01-15T13:48:22;16.33;;;10.82;;
22284;SDS011;11311;52.192;20.900;2024-01-15T13:50:52;14.98;;;8.63;;
22284;SDS011;11311;52.192;20.900;2024-01-15T13:53:23;19.13;;;11.82;;
22284;SDS011;11311;52.192;20.900;2024-01-15T13:55:52;18.30;;;11.15;;
22284;SDS011;11311;52.192;20.900;2024-01-15T13:58:21;21.98;;;12.13;;
22284;SDS011;11311;52.192;20.900;2024-01-15T14:00:50;23.17;;;13.05;;
22284;SDS011;11311;52.192;20.900;2024-01-15T14:03:19;24.80;;;12.70;;
22284;SDS011;11311;52.192;20.900;2024-01-15T14:05:48;26.60;;;11.95;;
22284;SDS011;11311;52.192;20.900;2024-01-15T14:08:18;20.77;;;12.32;;
22284;SDS011;11311;52.192;20.900;2024-01-15T14:10:48;21.60;;;12.25;;
22284;SDS011;11311;52.192;20.900;2024-01-15T14:13:17;21.92;;;11.80;;
22284;SDS011;11311;52.192;20.900;2024-01-15T14:18:17;18.40;;;10.13;;
22284;SDS011;11311;52.192;20.900;2024-01-15T14:20:50;20.05;;;10.85;;
22284;SDS011;11311;52.192;20.900;2024-01-15T14:23:20;21.27;;;12.52;;
22284;SDS011;11311;52.192;20.900;2024-01-15T14:25:51;20.48;;;11.15;;
22284;SDS011;11311;52.192;20.900;2024-01-15T14:28:20;18.80;;;11.65;;
22284;SDS011;11311;52.192;20.900;2024-01-15T14:33:20;19.85;;;10.75;;
22284;SDS011;11311;52.192;20.900;2024-01-15T14:35:49;20.42;;;11.68;;
22284;SDS011;11311;52.192;20.900;2024-01-15T14:38:18;19.95;;;10.95;;
22284;SDS011;11311;52.192;20.900;2024-01-15T14:40:47;14.80;;;10.40;;
22284;SDS011;11311;52.192;20.900;2024-01-15T14:43:18;16.50;;;9.67;;
22284;SDS011;11311;52.192;20.900;2024-01-15T14:45:47;18.25;;;11.40;;
22284;SDS011;11311;52.192;20.900;2024-01-15T14:48:16;20.45;;;10.85;;